Time;durP1;ratioP1;P1;durP2;ratioP2;P2;SDS_P1;SDS_P2;PMS_P1;PMS_P2;Temp;Humidity;BMP_temperature;BMP_pressure;BME280_temperature;BME280_humidity;BME280_pressure;Samples;Min_cycle;Max_cycle;Signal;HPM_P1;HPM_P2
2022/05/05 00:00:56;;;;;;;6.57;3.10;;;10.50;99.90;;;;;;5108074;28;20182;-73
2022/05/05 00:03:22;;;;;;;5.70;3.00;;;10.40;99.90;;;;;;5099323;28;20179;-73
2022/05/05 00:05:48;;;;;;;6.90;3.00;;;10.30;99.90;;;;;;5097875;28;20183;-73
2022/05/05 00:08:14;;;;;;;8.10;3.20;;;10.30;99.90;;;;;;5098505;28;20183;-73
2022/05/05 00:16:09;;;;;;;7.33;2.80;;;10.30;99.90;;;;;;5105698;28;20182;-72
2022/05/05 00:18:35;;;;;;;7.60;2.97;;;10.40;99.90;;;;;;5103925;28;20175;-73
2022/05/05 00:21:01;;;;;;;6.33;2.90;;;10.30;99.90;;;;;;5112221;28;20630;-68
2022/05/05 00:23:27;;;;;;;4.47;2.50;;;10.30;99.90;;;;;;5108499;28;20180;-70
2022/05/05 00:25:53;;;;;;;6.97;3.37;;;10.30;99.90;;;;;;5106504;28;20250;-69
2022/05/05 00:28:19;;;;;;;9.53;2.73;;;10.30;99.90;;;;;;5099575;28;20538;-71
2022/05/05 00:30:44;;;;;;;5.40;3.10;;;10.30;99.90;;;;;;5094581;28;20193;-71
2022/05/05 00:33:10;;;;;;;7.80;3.10;;;10.30;99.90;;;;;;5099393;28;20304;-69
2022/05/05 00:35:36;;;;;;;8.93;3.50;;;10.30;99.90;;;;;;5107949;28;20168;-69
2022/05/05 00:38:03;;;;;;;5.13;3.10;;;10.30;99.90;;;;;;5092024;28;20216;-69
2022/05/05 00:40:57;;;;;;;6.00;2.97;;;10.30;99.90;;;;;;5106314;28;20198;-70
2022/05/05 00:43:23;;;;;;;9.83;3.03;;;10.30;99.90;;;;;;5092578;28;20178;-69
2022/05/05 00:45:49;;;;;;;7.73;3.07;;;10.30;99.90;;;;;;5090154;28;20596;-69
2022/05/05 00:48:17;;;;;;;7.43;2.97;;;10.30;99.90;;;;;;5091340;28;20176;-69
2022/05/05 00:50:43;;;;;;;7.00;3.27;;;10.20;99.90;;;;;;5091371;28;20711;-70
2022/05/05 00:53:08;;;;;;;8.17;3.20;;;10.20;99.90;;;;;;5091702;28;20208;-70
2022/05/05 00:55:39;;;;;;;7.93;2.80;;;10.20;99.90;;;;;;5109331;28;20748;-71
2022/05/05 00:58:05;;;;;;;5.50;2.97;;;10.20;99.90;;;;;;5110025;28;20279;-72
2022/05/05 01:00:34;;;;;;;5.60;2.83;;;10.20;99.90;;;;;;5111478;28;20693;-65
2022/05/05 01:03:01;;;;;;;6.10;2.77;;;10.20;99.90;;;;;;5109760;28;20178;-72
2022/05/05 01:05:28;;;;;;;5.30;2.67;;;10.20;99.90;;;;;;5094461;28;20196;-72
2022/05/05 01:07:57;;;;;;;12.53;3.13;;;10.20;99.90;;;;;;5095090;28;20222;-72
2022/05/05 01:10:25;;;;;;;10.50;4.10;;;10.00;99.90;;;;;;5091991;28;20179;-72
2022/05/05 01:12:52;;;;;;;7.10;4.30;;;10.00;99.90;;;;;;5099733;28;20237;-72
2022/05/05 01:15:18;;;;;;;11.73;3.80;;;9.90;99.90;;;;;;5109359;28;20184;-72
2022/05/05 01:17:44;;;;;;;8.00;4.20;;;9.90;99.90;;;;;;5128934;28;20204;-72
2022/05/05 01:20:12;;;;;;;14.53;3.80;;;9.90;99.90;;;;;;5121935;28;20243;-71
2022/05/05 01:22:37;;;;;;;9.93;4.10;;;9.70;99.90;;;;;;5115982;28;20217;-71
2022/05/05 01:30:32;;;;;;;7.87;4.80;;;9.70;99.90;;;;;;5110285;28;20316;-68
2022/05/05 01:32:57;;;;;;;8.37;4.77;;;9.70;99.90;;;;;;5111304;28;20737;-68
2022/05/05 01:35:23;;;;;;;11.13;5.17;;;9.70;99.90;;;;;;5109164;28;20203;-69
2022/05/05 01:37:49;;;;;;;8.37;4.73;;;9.70;99.90;;;;;;5090115;28;20675;-69
2022/05/05 01:40:15;;;;;;;8.23;4.20;;;9.70;99.90;;;;;;5101435;28;20182;-68
2022/05/05 01:42:44;;;;;;;10.00;4.67;;;9.70;99.90;;;;;;5110607;28;20176;-68
2022/05/05 01:45:10;;;;;;;8.33;4.87;;;9.70;99.90;;;;;;5110542;28;20253;-68
2022/05/05 01:47:37;;;;;;;11.23;5.17;;;9.70;99.90;;;;;;5109868;28;20632;-68
2022/05/05 01:50:03;;;;;;;11.57;4.87;;;9.90;99.90;;;;;;5111573;28;20224;-68
2022/05/05 01:52:29;;;;;;;15.30;4.77;;;9.70;99.90;;;;;;5089756;28;20674;-68
2022/05/05 01:54:54;;;;;;;15.10;4.60;;;9.70;99.90;;;;;;5104972;28;20182;-68
2022/05/05 01:57:21;;;;;;;8.93;3.70;;;9.70;99.90;;;;;;5108886;28;20178;-68
2022/05/05 01:59:46;;;;;;;5.20;3.37;;;9.60;99.90;;;;;;5091387;28;20168;-68
2022/05/05 02:02:12;;;;;;;6.53;4.00;;;9.50;99.90;;;;;;5108353;28;20171;-68
2022/05/05 02:04:38;;;;;;;7.20;3.77;;;9.50;99.90;;;;;;5109046;28;20594;-68
2022/05/05 02:07:03;;;;;;;9.83;3.77;;;9.40;99.90;;;;;;5096652;28;20181;-68
2022/05/05 02:09:30;;;;;;;8.47;3.70;;;9.40;99.90;;;;;;5109963;28;20561;-68
2022/05/05 02:11:56;;;;;;;11.27;3.50;;;9.40;99.90;;;;;;5109794;28;20197;-70
2022/05/05 02:14:23;;;;;;;5.33;3.10;;;9.30;99.90;;;;;;5110634;28;20219;-67
2022/05/05 02:16:52;;;;;;;5.37;3.13;;;9.30;99.90;;;;;;5095684;28;20226;-68
2022/05/05 02:19:18;;;;;;;5.97;3.40;;;9.30;99.90;;;;;;5110825;28;20314;-68
2022/05/05 02:21:43;;;;;;;6.53;3.40;;;9.30;99.90;;;;;;5096052;28;20262;-68
2022/05/05 02:24:09;;;;;;;6.23;3.47;;;9.20;99.90;;;;;;5090680;28;20183;-71
2022/05/05 02:26:35;;;;;;;5.47;3.77;;;9.20;99.90;;;;;;5094623;28;20191;-71
2022/05/05 02:29:02;;;;;;;5.60;3.70;;;9.20;99.90;;;;;;5100586;28;20641;-70
2022/05/05 02:31:28;;;;;;;7.97;4.30;;;9.10;99.90;;;;;;5090033;28;20677;-72
2022/05/05 02:33:54;;;;;;;8.47;3.80;;;9.00;99.90;;;;;;5095442;28;20302;-72
2022/05/05 02:39:03;;;;;;;7.77;3.73;;;9.00;99.90;;;;;;5108914;28;20540;-72
2022/05/05 02:41:29;;;;;;;7.87;3.83;;;9.00;99.90;;;;;;5108232;28;20168;-72
2022/05/05 02:43:55;;;;;;;8.43;3.73;;;9.00;99.90;;;;;;5108203;28;20183;-73
2022/05/05 02:46:20;;;;;;;6.13;3.47;;;9.00;99.90;;;;;;5109516;28;20216;-74
2022/05/05 02:48:48;;;;;;;8.37;3.37;;;9.10;99.90;;;;;;5109040;28;20180;-74
2022/05/05 02:51:14;;;;;;;7.20;3.73;;;9.10;99.90;;;;;;5091873;28;20261;-73
2022/05/05 02:56:24;;;;;;;7.03;4.33;;;9.20;99.90;;;;;;5109968;28;20300;-74
2022/05/05 02:58:51;;;;;;;10.03;4.13;;;9.20;99.90;;;;;;5104929;28;20733;-74
2022/05/05 03:01:17;;;;;;;6.83;3.77;;;9.20;99.90;;;;;;5110107;28;20171;-74
2022/05/05 03:03:43;;;;;;;12.23;4.20;;;9.30;99.90;;;;;;5109019;28;20633;-73
2022/05/05 03:06:09;;;;;;;7.20;4.33;;;9.30;99.90;;;;;;5095972;28;20180;-73
2022/05/05 03:08:34;;;;;;;8.70;4.00;;;9.30;99.90;;;;;;5089519;28;20617;-73
2022/05/05 03:11:00;;;;;;;9.00;4.37;;;9.30;99.90;;;;;;5113718;28;20542;-74
2022/05/05 03:13:26;;;;;;;8.97;4.80;;;9.40;99.90;;;;;;5098225;28;20318;-68
2022/05/05 03:15:51;;;;;;;10.30;4.37;;;9.40;99.90;;;;;;5093165;28;20676;-68
2022/05/05 03:18:17;;;;;;;9.77;4.20;;;9.50;99.90;;;;;;5107477;27;20182;-67
2022/05/05 03:20:43;;;;;;;9.20;3.80;;;9.40;99.90;;;;;;5097277;28;20649;-68
2022/05/05 03:23:08;;;;;;;8.17;4.13;;;9.40;99.90;;;;;;5093579;28;20179;-71
2022/05/05 03:25:34;;;;;;;5.37;3.67;;;9.30;99.90;;;;;;5095380;28;20234;-68
2022/05/05 03:28:00;;;;;;;8.47;4.10;;;9.20;99.90;;;;;;5110770;28;20573;-68
2022/05/05 03:30:26;;;;;;;8.43;3.97;;;9.20;99.90;;;;;;5111318;28;20203;-68
2022/05/05 03:32:51;;;;;;;8.80;4.50;;;9.30;99.90;;;;;;5111314;28;20206;-68
2022/05/05 03:35:17;;;;;;;8.17;4.23;;;9.20;99.90;;;;;;5107935;28;20183;-68
2022/05/05 03:37:43;;;;;;;8.40;4.67;;;9.30;99.90;;;;;;5099458;28;20186;-68
2022/05/05 03:40:09;;;;;;;13.67;5.23;;;9.30;99.90;;;;;;5092337;28;20259;-68
2022/05/05 03:42:34;;;;;;;10.03;4.97;;;9.30;99.90;;;;;;5111753;28;20207;-68
2022/05/05 03:45:00;;;;;;;7.40;4.90;;;9.30;99.90;;;;;;5112596;28;20666;-68
2022/05/05 03:47:26;;;;;;;11.77;5.20;;;9.30;99.90;;;;;;5092374;28;20176;-70
2022/05/05 03:49:52;;;;;;;11.80;5.47;;;9.30;99.90;;;;;;5107063;28;20538;-69
2022/05/05 03:52:17;;;;;;;12.47;5.70;;;9.20;99.90;;;;;;5091693;28;20295;-69
2022/05/05 03:54:43;;;;;;;13.57;6.13;;;9.30;99.90;;;;;;5099077;28;20727;-70
2022/05/05 03:57:09;;;;;;;12.10;5.57;;;9.30;99.90;;;;;;5109727;28;20163;-70
2022/05/05 03:59:34;;;;;;;12.20;5.47;;;9.30;99.90;;;;;;5112160;28;20646;-69
2022/05/05 04:02:00;;;;;;;9.27;5.60;;;9.20;99.90;;;;;;5100589;28;20260;-65
2022/05/05 04:04:26;;;;;;;10.53;5.80;;;9.20;99.90;;;;;;5102744;28;20171;-84
2022/05/05 04:06:51;;;;;;;14.90;5.87;;;9.20;99.90;;;;;;5111856;28;20494;-72
2022/05/05 04:09:17;;;;;;;10.23;5.57;;;9.20;99.90;;;;;;5111379;28;20163;-73
2022/05/05 04:11:43;;;;;;;11.43;6.13;;;9.20;99.90;;;;;;5112491;28;20171;-74
2022/05/05 04:14:08;;;;;;;11.37;5.63;;;9.20;99.90;;;;;;5112757;28;20259;-73
2022/05/05 04:16:34;;;;;;;11.63;5.50;;;9.20;99.90;;;;;;5111825;28;20676;-74
2022/05/05 04:19:03;;;;;;;14.23;5.17;;;9.10;99.90;;;;;;5112935;28;20634;-74
2022/05/05 04:21:29;;;;;;;12.60;6.20;;;9.10;99.90;;;;;;5111362;28;20290;-74
2022/05/05 04:23:55;;;;;;;12.70;5.83;;;9.10;99.90;;;;;;5111692;28;20269;-74
2022/05/05 04:26:21;;;;;;;12.57;5.30;;;9.10;99.90;;;;;;5105111;28;20686;-74
2022/05/05 04:28:49;;;;;;;11.83;6.10;;;9.00;99.90;;;;;;5106186;28;20179;-73
2022/05/05 04:31:17;;;;;;;14.47;6.27;;;9.00;99.90;;;;;;5107869;28;20225;-74
2022/05/05 04:33:43;;;;;;;17.30;6.77;;;9.00;99.90;;;;;;5097025;28;20214;-74
2022/05/05 04:36:10;;;;;;;12.60;6.10;;;9.00;99.90;;;;;;5092365;28;20171;-73
2022/05/05 04:38:36;;;;;;;11.93;5.77;;;9.00;99.90;;;;;;5091370;28;20180;-74
2022/05/05 04:41:02;;;;;;;13.07;5.93;;;9.00;99.90;;;;;;5092053;28;20262;-73
2022/05/05 04:43:28;;;;;;;11.60;6.13;;;9.00;99.90;;;;;;5092929;28;20263;-73
2022/05/05 04:45:54;;;;;;;9.87;4.93;;;9.00;99.90;;;;;;5111082;28;20285;-74
2022/05/05 04:48:19;;;;;;;14.10;5.80;;;9.00;99.90;;;;;;5112465;28;20650;-75
2022/05/05 04:50:45;;;;;;;10.37;5.43;;;9.10;99.90;;;;;;5110206;28;20198;-77
2022/05/05 04:53:11;;;;;;;10.67;5.80;;;9.10;99.90;;;;;;5111455;28;20211;-76
2022/05/05 04:55:36;;;;;;;10.33;5.33;;;9.10;99.90;;;;;;5110094;28;20171;-76
2022/05/05 04:58:02;;;;;;;10.87;6.13;;;9.10;99.90;;;;;;5106859;28;20202;-76
2022/05/05 05:00:29;;;;;;;11.40;5.90;;;9.10;99.90;;;;;;5103284;28;20622;-75
2022/05/05 05:02:56;;;;;;;10.33;6.10;;;9.10;99.90;;;;;;5111754;28;20175;-76
2022/05/05 05:05:22;;;;;;;12.50;6.07;;;9.20;99.90;;;;;;5092477;28;20210;-75
2022/05/05 05:07:47;;;;;;;11.13;6.33;;;9.30;99.90;;;;;;5104244;28;20658;-76
2022/05/05 05:10:13;;;;;;;23.33;10.77;;;9.30;99.90;;;;;;5109991;28;20206;-75
2022/05/05 05:12:39;;;;;;;22.80;12.30;;;9.30;99.90;;;;;;5102595;28;20257;-75
2022/05/05 05:15:06;;;;;;;18.93;10.10;;;9.40;99.90;;;;;;5091464;28;20180;-62
2022/05/05 05:17:32;;;;;;;14.57;7.50;;;9.40;99.90;;;;;;5089292;28;20176;-67
2022/05/05 05:19:57;;;;;;;15.77;7.00;;;9.50;99.90;;;;;;5090159;28;20538;-68
2022/05/05 05:22:23;;;;;;;10.40;6.30;;;9.50;99.90;;;;;;5090992;28;20207;-68
2022/05/05 05:24:49;;;;;;;15.60;6.20;;;9.50;99.90;;;;;;5091434;28;20195;-69
2022/05/05 05:27:14;;;;;;;13.43;6.33;;;9.60;99.90;;;;;;5095960;28;20650;-69
2022/05/05 05:29:40;;;;;;;10.27;5.90;;;9.80;99.90;;;;;;5107544;28;20638;-70
2022/05/05 05:32:06;;;;;;;13.33;7.13;;;9.90;99.90;;;;;;5097029;28;20626;-69
2022/05/05 05:34:32;;;;;;;13.77;6.03;;;10.00;99.90;;;;;;5109977;28;20214;-68
2022/05/05 05:36:57;;;;;;;10.97;6.00;;;10.10;99.90;;;;;;5109260;28;20697;-70
2022/05/05 05:39:23;;;;;;;12.67;5.60;;;10.10;99.90;;;;;;5102861;28;20329;-69
2022/05/05 05:41:49;;;;;;;12.43;6.30;;;10.20;99.90;;;;;;5109096;28;20539;-71
2022/05/05 05:44:15;;;;;;;12.63;5.20;;;10.30;99.90;;;;;;5111540;28;20170;-71
2022/05/05 05:46:40;;;;;;;12.87;5.67;;;10.40;99.90;;;;;;5108116;28;20706;-72
2022/05/05 05:49:06;;;;;;;10.57;5.97;;;10.50;99.90;;;;;;5110579;28;20178;-70
2022/05/05 05:51:35;;;;;;;16.30;5.97;;;10.60;99.90;;;;;;5097012;28;20721;-71
2022/05/05 05:54:01;;;;;;;13.93;5.60;;;10.60;99.90;;;;;;5094561;28;20250;-71
2022/05/05 05:56:27;;;;;;;11.07;5.40;;;10.70;99.90;;;;;;5100616;28;20183;-71
2022/05/05 05:58:53;;;;;;;15.13;5.40;;;10.80;99.90;;;;;;5098641;28;20168;-71
2022/05/05 06:01:19;;;;;;;8.53;5.17;;;10.90;99.90;;;;;;5094771;28;20168;-71
2022/05/05 06:03:53;;;;;;;10.07;5.57;;;10.90;99.90;;;;;;5102654;28;20653;-70
2022/05/05 06:06:25;;;;;;;9.63;5.57;;;10.90;99.90;;;;;;5100535;28;20171;-78
2022/05/05 06:08:51;;;;;;;8.70;5.97;;;10.90;99.90;;;;;;5108821;28;20179;-79
2022/05/05 06:11:19;;;;;;;13.87;6.17;;;10.90;99.90;;;;;;5091072;28;20233;-77
2022/05/05 06:13:44;;;;;;;16.97;5.90;;;11.00;99.90;;;;;;5104259;28;20222;-78
2022/05/05 06:16:10;;;;;;;12.60;6.03;;;11.10;99.90;;;;;;5089412;28;20183;-78
2022/05/05 06:18:39;;;;;;;14.60;6.50;;;11.10;99.90;;;;;;5098946;28;20182;-76
2022/05/05 06:21:06;;;;;;;18.47;6.73;;;11.20;99.90;;;;;;5109103;28;20179;-76
2022/05/05 06:23:32;;;;;;;11.97;6.73;;;11.30;99.90;;;;;;5107237;28;20359;-74
2022/05/05 06:25:57;;;;;;;15.13;6.60;;;11.50;99.90;;;;;;5090571;28;20211;-73
2022/05/05 06:28:23;;;;;;;15.50;6.60;;;11.70;99.90;;;;;;5091391;28;20172;-80
2022/05/05 06:30:49;;;;;;;13.00;6.47;;;11.80;99.90;;;;;;5092529;28;20174;-61
2022/05/05 06:33:15;;;;;;;12.47;6.33;;;11.80;99.90;;;;;;5105195;28;20294;-60
2022/05/05 06:35:40;;;;;;;11.52;5.50;;;11.90;99.90;;;;;;5094440;28;20653;-60
2022/05/05 06:38:06;;;;;;;17.27;6.22;;;12.10;99.90;;;;;;5101371;28;20175;-60
2022/05/05 06:40:34;;;;;;;14.80;6.57;;;12.20;99.90;;;;;;5109925;28;20641;-60
2022/05/05 06:43:00;;;;;;;10.57;6.40;;;12.20;99.90;;;;;;5092239;28;20214;-64
2022/05/05 06:45:26;;;;;;;15.02;6.57;;;12.30;99.90;;;;;;5103062;28;20183;-59
2022/05/05 06:47:52;;;;;;;13.27;6.75;;;12.30;99.90;;;;;;5110349;28;20673;-60
2022/05/05 06:50:21;;;;;;;15.07;6.53;;;12.40;99.90;;;;;;5113823;28;20688;-60
2022/05/05 06:52:48;;;;;;;14.77;6.38;;;12.40;99.90;;;;;;5114266;28;20223;-60
2022/05/05 06:55:14;;;;;;;20.40;7.83;;;12.40;99.90;;;;;;5095164;28;20207;-60
2022/05/05 06:57:39;;;;;;;15.32;7.53;;;12.50;99.90;;;;;;5094537;28;20222;-58
2022/05/05 07:00:06;;;;;;;13.35;7.35;;;12.50;99.90;;;;;;5093271;28;20176;-57
2022/05/05 07:02:31;;;;;;;16.92;7.57;;;12.60;99.90;;;;;;5093918;28;20229;-58
2022/05/05 07:07:42;;;;;;;19.63;7.97;;;12.50;99.90;;;;;;5114316;28;20561;-58
2022/05/05 07:12:52;;;;;;;21.50;10.88;;;12.60;99.90;;;;;;5114254;28;20213;-57
2022/05/05 07:15:17;;;;;;;23.23;11.27;;;12.90;99.90;;;;;;5105838;28;20175;-57
2022/05/05 07:17:43;;;;;;;23.63;13.05;;;13.00;99.90;;;;;;5113721;28;20198;-57
2022/05/05 07:20:09;;;;;;;22.83;12.35;;;13.20;99.90;;;;;;5113415;28;20205;-58
2022/05/05 07:22:35;;;;;;;25.27;13.80;;;13.30;99.90;;;;;;5113645;28;20246;-58
2022/05/05 07:25:03;;;;;;;31.70;15.85;;;13.30;99.90;;;;;;5112646;28;20269;-59
2022/05/05 07:27:29;;;;;;;29.58;17.35;;;13.50;99.90;;;;;;5098276;28;20274;-64
2022/05/05 07:29:55;;;;;;;39.83;19.25;;;13.40;99.90;;;;;;5092769;28;20172;-75
2022/05/05 07:32:20;;;;;;;36.40;20.25;;;13.50;99.90;;;;;;5092600;28;20168;-62
2022/05/05 07:34:46;;;;;;;32.10;18.95;;;13.70;99.90;;;;;;5100987;28;20568;-67
2022/05/05 07:37:12;;;;;;;32.83;19.67;;;13.80;99.90;;;;;;5113657;28;20182;-68
2022/05/05 07:39:38;;;;;;;32.70;19.45;;;13.90;99.90;;;;;;5111828;28;20214;-62
2022/05/05 07:42:04;;;;;;;38.33;19.13;;;13.90;99.90;;;;;;5099658;28;20549;-60
2022/05/05 07:44:29;;;;;;;35.22;18.98;;;13.90;99.90;;;;;;5108978;28;20175;-60
2022/05/05 07:46:56;;;;;;;32.35;18.70;;;14.00;99.90;;;;;;5110854;28;20182;-62
2022/05/05 07:49:22;;;;;;;31.50;17.88;;;14.00;99.90;;;;;;5092359;28;20546;-62
2022/05/05 07:51:52;;;;;;;40.38;18.73;;;14.10;99.90;;;;;;5092020;28;20241;-62
2022/05/05 07:54:42;;;;;;;39.97;19.52;;;14.30;99.90;;;;;;5092223;28;20218;-62
2022/05/05 07:57:11;;;;;;;35.25;18.00;;;14.30;99.90;;;;;;5093285;28;20313;-63
2022/05/05 07:59:38;;;;;;;36.47;20.08;;;14.60;99.90;;;;;;5090791;28;20168;-63
2022/05/05 08:02:05;;;;;;;34.05;19.75;;;14.80;99.90;;;;;;5091468;28;20176;-62
2022/05/05 08:04:31;;;;;;;37.83;18.50;;;15.00;99.90;;;;;;5091899;28;20177;-62
2022/05/05 08:06:57;;;;;;;43.05;18.63;;;15.10;99.90;;;;;;5092034;28;20289;-62
2022/05/05 08:09:23;;;;;;;34.90;19.17;;;15.20;99.90;;;;;;5104633;28;20179;-62
2022/05/05 08:11:49;;;;;;;33.35;18.58;;;15.40;99.90;;;;;;5112069;28;20550;-63
2022/05/05 08:14:14;;;;;;;33.03;18.38;;;15.80;99.90;;;;;;5112870;28;20207;-63
2022/05/05 08:16:40;;;;;;;26.27;16.25;;;16.10;99.90;;;;;;5110624;28;20534;-63
2022/05/05 08:19:06;;;;;;;30.45;15.43;;;16.30;99.90;;;;;;5111652;28;20175;-63
2022/05/05 08:21:32;;;;;;;23.02;14.10;;;16.70;99.90;;;;;;5112700;28;20574;-62
2022/05/05 08:29:27;;;;;;;25.02;15.43;;;18.20;99.90;;;;;;5112582;28;20281;-59
2022/05/05 08:31:53;;;;;;;15.98;11.88;;;18.40;99.90;;;;;;5111528;28;20254;-60
2022/05/05 08:34:19;;;;;;;21.33;11.55;;;18.80;99.90;;;;;;5111753;28;20256;-58
2022/05/05 08:36:44;;;;;;;12.98;10.40;;;19.50;99.90;;;;;;5111813;28;20183;-58
2022/05/05 08:39:10;;;;;;;16.83;9.20;;;19.80;99.90;;;;;;5110911;28;20178;-58
2022/05/05 08:41:39;;;;;;;13.48;9.13;;;19.40;99.90;;;;;;5110988;28;20565;-58
2022/05/05 08:44:04;;;;;;;16.88;8.50;;;19.40;99.90;;;;;;5111583;28;20171;-58
2022/05/05 08:46:33;;;;;;;16.85;8.25;;;20.40;99.90;;;;;;5111544;28;20174;-61
2022/05/05 08:49:03;;;;;;;15.23;8.18;;;21.30;99.90;;;;;;5112234;28;20173;-61
2022/05/05 08:51:38;;;;;;;16.13;8.15;;;21.70;99.90;;;;;;5111314;28;20215;-61
2022/05/05 08:54:06;;;;;;;11.55;7.07;;;22.20;99.90;;;;;;5112014;28;20256;-59
2022/05/05 08:56:33;;;;;;;10.25;6.90;;;22.70;99.90;;;;;;5112020;28;20186;-61
2022/05/05 08:58:59;;;;;;;9.50;6.07;;;22.70;99.90;;;;;;5112099;28;20242;-61
2022/05/05 09:01:26;;;;;;;11.50;6.25;;;22.60;99.90;;;;;;5112264;28;20650;-62
2022/05/05 09:03:52;;;;;;;11.20;6.15;;;21.90;99.90;;;;;;5111926;28;20270;-61
2022/05/05 09:06:18;;;;;;;8.18;4.80;;;21.60;99.90;;;;;;5112074;28;20267;-61
2022/05/05 09:08:47;;;;;;;7.25;5.03;;;21.40;99.90;;;;;;5112002;28;20179;-61
2022/05/05 09:11:18;;;;;;;14.07;6.03;;;21.50;99.90;;;;;;5110761;28;20198;-61
2022/05/05 09:13:44;;;;;;;8.82;4.40;;;20.80;99.90;;;;;;5111252;28;20210;-60
2022/05/05 09:16:22;;;;;;;8.68;4.25;;;20.70;99.90;;;;;;5107722;28;20656;-60
2022/05/05 09:18:48;;;;;;;8.85;3.65;;;20.90;99.90;;;;;;5110998;28;20682;-60
2022/05/05 09:21:13;;;;;;;9.23;3.90;;;21.10;99.90;;;;;;5110835;28;20164;-60
2022/05/05 09:26:27;;;;;;;6.18;3.33;;;20.60;99.90;;;;;;5111915;28;20227;-60
2022/05/05 09:28:54;;;;;;;4.97;2.65;;;20.80;99.90;;;;;;5112076;28;20171;-60
2022/05/05 09:31:21;;;;;;;5.47;2.60;;;21.00;99.90;;;;;;5111659;28;20189;-58
2022/05/05 09:33:47;;;;;;;5.82;2.80;;;21.40;99.90;;;;;;5111797;28;20211;-59
2022/05/05 09:36:26;;;;;;;5.78;3.10;;;21.40;99.90;;;;;;5111508;28;20181;-59
2022/05/05 09:39:00;;;;;;;9.68;3.05;;;21.20;99.90;;;;;;5111660;28;20174;-59
2022/05/05 09:41:43;;;;;;;8.38;3.63;;;21.20;99.90;;;;;;5111425;28;20171;-59
2022/05/05 09:44:11;;;;;;;5.72;2.83;;;21.40;99.90;;;;;;5111522;28;20199;-59
2022/05/05 09:46:37;;;;;;;6.88;2.63;;;21.40;99.90;;;;;;5111489;28;20175;-59
2022/05/05 09:49:14;;;;;;;7.43;2.60;;;21.60;99.90;;;;;;5111408;28;20178;-59
2022/05/05 09:51:45;;;;;;;8.25;2.30;;;22.20;99.90;;;;;;5111575;28;20231;-59
2022/05/05 09:59:49;;;;;;;7.15;2.05;;;23.40;99.90;;;;;;5111565;28;20198;-60
2022/05/05 10:04:00;;;;;;;5.47;2.42;;;23.60;99.90;;;;;;5111118;28;20266;-60
2022/05/05 10:05:10;;;;;;;7.68;2.30;;;23.90;99.90;;;;;;5111130;28;20191;-60
2022/05/05 10:07:39;;;;;;;7.70;2.85;;;23.90;99.90;;;;;;5111047;28;20170;-60
2022/05/05 10:10:07;;;;;;;6.40;2.35;;;23.80;99.90;;;;;;5111211;28;20220;-60
2022/05/05 10:12:35;;;;;;;5.78;2.38;;;23.80;99.90;;;;;;5111220;28;20699;-60
2022/05/05 10:15:01;;;;;;;8.40;2.80;;;23.80;99.90;;;;;;5110890;28;20246;-60
2022/05/05 10:17:28;;;;;;;6.13;2.65;;;23.90;99.90;;;;;;5111061;28;20556;-60
2022/05/05 10:19:54;;;;;;;7.82;2.97;;;23.60;99.90;;;;;;5111064;28;20217;-60
2022/05/05 10:22:31;;;;;;;11.13;3.00;;;24.10;99.90;;;;;;5111032;28;20186;-60
2022/05/05 10:25:13;;;;;;;10.70;3.50;;;24.50;99.90;;;;;;5115022;28;20163;-60
2022/05/05 10:27:45;;;;;;;10.98;5.40;;;24.80;99.90;;;;;;5115433;28;20276;-59
2022/05/05 10:30:15;;;;;;;10.98;5.10;;;24.40;99.90;;;;;;5115287;28;20173;-59
2022/05/05 10:32:41;;;;;;;9.85;6.18;;;23.30;99.90;;;;;;5115039;28;20191;-60
2022/05/05 10:35:08;;;;;;;12.35;5.53;;;23.90;99.90;;;;;;5115245;28;20190;-60
2022/05/05 10:37:37;;;;;;;10.90;5.78;;;24.00;99.90;;;;;;5115352;28;20236;-59
2022/05/05 10:40:10;;;;;;;12.52;6.43;;;24.40;99.90;;;;;;5115287;28;20167;-60
2022/05/05 10:42:44;;;;;;;9.32;6.03;;;23.70;99.90;;;;;;5115126;28;20182;-59
2022/05/05 10:45:16;;;;;;;9.38;5.47;;;24.10;99.90;;;;;;5115122;28;20509;-60
2022/05/05 10:48:06;;;;;;;9.60;5.40;;;24.30;99.90;;;;;;5113691;28;20217;-59
2022/05/05 10:50:46;;;;;;;7.47;4.50;;;24.30;99.90;;;;;;5114793;28;20151;-60
2022/05/05 10:53:28;;;;;;;10.35;4.10;;;24.80;99.90;;;;;;5115226;28;20256;-59
2022/05/05 10:55:54;;;;;;;8.43;3.85;;;24.70;99.90;;;;;;5114875;28;20167;-59
2022/05/05 10:58:57;;;;;;;9.93;4.05;;;24.80;99.90;;;;;;5114648;28;20171;-60
2022/05/05 11:01:24;;;;;;;9.25;3.50;;;25.00;99.90;;;;;;5114691;27;20249;-60
2022/05/05 11:04:15;;;;;;;7.40;3.38;;;24.70;99.90;;;;;;5114611;28;20175;-59
2022/05/05 11:06:42;;;;;;;6.38;2.65;;;24.20;99.90;;;;;;5114502;28;20163;-59
2022/05/05 11:09:08;;;;;;;6.72;2.58;;;23.90;99.90;;;;;;5114588;28;20247;-59
2022/05/05 11:11:41;;;;;;;8.68;3.30;;;23.20;99.90;;;;;;5114434;28;20167;-59
2022/05/05 11:23:08;;;;;;;7.63;2.63;;;22.60;99.90;;;;;;5114304;28;20275;-60
2022/05/05 11:25:40;;;;;;;8.85;3.90;;;23.70;99.90;;;;;;5114236;28;20163;-60
2022/05/05 11:28:08;;;;;;;8.63;3.67;;;24.70;99.90;;;;;;5114149;28;20177;-60
2022/05/05 11:30:35;;;;;;;8.32;3.75;;;25.10;99.90;;;;;;5114079;28;20164;-60
2022/05/05 11:33:03;;;;;;;6.95;3.22;;;25.10;99.90;;;;;;5113915;28;20209;-60
2022/05/05 11:35:29;;;;;;;10.43;3.75;;;25.60;99.90;;;;;;5112615;28;20630;-60
2022/05/05 11:37:55;;;;;;;8.82;3.92;;;26.40;99.90;;;;;;5113970;28;20171;-60
2022/05/05 11:40:20;;;;;;;7.00;2.97;;;26.10;99.90;;;;;;5113857;28;20167;-60
2022/05/05 11:45:34;;;;;;;7.90;3.70;;;26.20;99.90;;;;;;5112701;28;20253;-60
2022/05/05 11:48:17;;;;;;;11.55;4.35;;;26.50;99.90;;;;;;5113396;28;20292;-60
2022/05/05 11:50:46;;;;;;;13.13;4.88;;;27.00;99.90;;;;;;5113259;28;20175;-60
2022/05/05 11:53:18;;;;;;;7.43;4.68;;;26.10;99.90;;;;;;5113299;28;20206;-60
2022/05/05 11:55:45;;;;;;;6.63;4.20;;;25.90;99.90;;;;;;5113582;28;20527;-60
2022/05/05 12:01:36;;;;;;;9.68;3.83;;;26.00;99.90;;;;;;5113227;28;20282;-60
2022/05/05 12:04:00;;;;;;;7.35;3.85;;;26.70;99.90;;;;;;5113508;28;20258;-64
2022/05/05 12:06:27;;;;;;;8.32;3.90;;;26.00;99.90;;;;;;5111895;28;20203;-65
2022/05/05 12:08:55;;;;;;;6.60;3.60;;;25.60;99.90;;;;;;5112812;28;20603;-60
2022/05/05 12:11:21;;;;;;;6.03;3.17;;;25.40;99.90;;;;;;5112130;28;20381;-59
2022/05/05 12:13:49;;;;;;;7.47;3.47;;;25.20;99.90;;;;;;5112606;28;20674;-60
2022/05/05 12:16:17;;;;;;;9.52;3.50;;;25.70;99.90;;;;;;5111929;28;20194;-60
2022/05/05 12:18:53;;;;;;;7.05;2.47;;;26.10;99.90;;;;;;5111703;28;20167;-60
2022/05/05 12:21:23;;;;;;;10.10;3.65;;;26.90;99.90;;;;;;5111916;28;20182;-60
2022/05/05 12:24:15;;;;;;;9.60;3.90;;;27.60;99.90;;;;;;5112335;28;20247;-60
2022/05/05 12:26:41;;;;;;;10.30;3.63;;;26.90;99.90;;;;;;5108852;28;20713;-60
2022/05/05 12:29:18;;;;;;;7.80;3.65;;;27.30;99.90;;;;;;5111675;28;20160;-61
2022/05/05 12:31:55;;;;;;;8.15;3.20;;;27.30;99.90;;;;;;5111185;28;20179;-60
2022/05/05 12:34:27;;;;;;;8.05;3.97;;;26.60;99.90;;;;;;5110958;28;20194;-60
2022/05/05 12:37:12;;;;;;;12.40;3.92;;;26.10;99.90;;;;;;5111613;28;20171;-60
2022/05/05 12:39:58;;;;;;;14.82;4.28;;;25.90;99.90;;;;;;5111836;28;20619;-60
2022/05/05 12:42:36;;;;;;;8.13;4.03;;;24.90;99.90;;;;;;5111721;28;20190;-59
2022/05/05 12:45:02;;;;;;;9.63;3.85;;;24.60;99.90;;;;;;5112305;28;20679;-59
2022/05/05 12:47:28;;;;;;;9.50;3.35;;;23.40;99.90;;;;;;5111551;28;20221;-59
2022/05/05 12:49:54;;;;;;;10.82;4.20;;;23.40;99.90;;;;;;5111471;28;20171;-60
2022/05/05 13:00:49;;;;;;;10.60;4.70;;;23.50;99.90;;;;;;5090908;28;20244;-59
2022/05/05 13:03:15;;;;;;;19.67;4.60;;;23.90;99.90;;;;;;5094983;28;20275;-59
2022/05/05 13:05:41;;;;;;;10.18;4.35;;;24.30;99.90;;;;;;5108151;28;20250;-60
2022/05/05 13:08:07;;;;;;;11.95;4.65;;;24.50;99.90;;;;;;5111436;28;20321;-59
2022/05/05 13:10:33;;;;;;;11.00;4.65;;;24.90;99.90;;;;;;5110493;28;20199;-60
2022/05/05 13:12:58;;;;;;;14.77;4.43;;;25.30;99.90;;;;;;5110021;28;20174;-60
2022/05/05 13:15:24;;;;;;;10.35;4.30;;;26.00;99.90;;;;;;5095712;28;20184;-60
2022/05/05 13:17:50;;;;;;;9.35;3.88;;;25.70;99.90;;;;;;5110853;28;20163;-60
2022/05/05 13:20:15;;;;;;;11.60;4.47;;;25.90;99.90;;;;;;5104966;28;20803;-60
2022/05/05 13:22:41;;;;;;;10.75;4.82;;;26.00;99.90;;;;;;5089072;28;20166;-60
2022/05/05 13:25:07;;;;;;;12.52;4.43;;;26.30;99.90;;;;;;5090908;28;20229;-59
2022/05/05 13:27:33;;;;;;;13.70;4.78;;;25.80;99.90;;;;;;5092181;28;20179;-60
2022/05/05 13:29:59;;;;;;;15.90;5.10;;;25.60;99.90;;;;;;5099828;28;20174;-59
2022/05/05 13:32:24;;;;;;;14.07;5.10;;;25.40;99.90;;;;;;5111071;28;20631;-60
2022/05/05 13:34:52;;;;;;;15.88;5.13;;;24.90;99.90;;;;;;5094619;28;20203;-60
2022/05/05 13:37:20;;;;;;;13.23;5.55;;;25.00;99.90;;;;;;5091040;28;20194;-59
2022/05/05 13:39:46;;;;;;;13.52;5.38;;;24.90;99.90;;;;;;5090491;28;20191;-60
2022/05/05 13:42:12;;;;;;;13.77;6.15;;;25.40;99.90;;;;;;5089306;28;20270;-60
2022/05/05 13:44:38;;;;;;;12.68;5.70;;;24.80;99.90;;;;;;5091119;28;20183;-60